Airfield :
LOGIN :

Register | Disclaimer

   EN    FR    IT 

 










Legend :    VFR   Marginal VFR   IFR   Intensive IFR   Very Intensive IFR
Visi :
Ceiling :
>= 8 km
>= 3000ft
5 to 8 km
1000 to 3000 ft
1500m to 5 km
500 to 1000 ft
800 to 1500m
200 to 500 ft
< 800m
< 200 ft
Symbols :   Thunderstorms  Fog  Heavy snow  Heavy precipitations  Wind > 20 kt
SIGMETs :     Misc.  Thunderstorms  Icing  Turbulence  Mountain Waves  Volcanic Ashes







- Airport Elevation : 12 ft
- IATA code : BCN


LEBL - Barcelone

CURRENT METAR :
  • 220600Z 33006KT 300V020 CAVOK 14/08 Q1021 NOSIG

EXPIRED METARs :
  • 220530Z 36003KT 310V060 CAVOK 14/08 Q1021 NOSIG
  • 220500Z 33006KT CAVOK 14/07 Q1021 NOSIG
  • 220430Z 34009KT 9999 FEW030 13/08 Q1021 NOSIG
  • 220400Z 34010KT 9999 FEW030 14/08 Q1021 NOSIG
  • 220330Z 34010KT 310V010 9999 FEW030 14/08 Q1021 NOSIG

TAF TAF LEBL
Valid from the 22 at 06:00 until the 23 at 06:00 UTC


220500Z 2206/2306 34007KT 9999 FEW040 TX19/2214Z TN11/2207Z
BECMG 2210/2212 22007KT
No reported NOTAMs for that airfield.



MET'MAP, your aeronautical weather chart ! - Copyright ORBIFLY December 2007 - Disclaimer

ORBIFLY MET'MAP TEAM :

Programming & Development : Alexandra Zaïnal
Concept & Development : Baudouin d'Aumeries
Co-Development & Prog : Marc-Olivier Méhu
Technical & hardware support : Manuel Goepfert

Contact : metmap@orbifly.com




SOURCES & CREDITS :

   NOAA